createdAt,value
2018-01-05T00:01:04.743Z,921.1
2018-01-05T00:02:10.888Z,917.6
2018-01-05T00:03:19.594Z,921.1
2018-01-05T00:04:25.046Z,921.1
2018-01-05T00:05:33.198Z,921.3
2018-01-05T00:06:37.744Z,921.2
2018-01-05T00:07:44.054Z,921.2
2018-01-05T00:08:53.769Z,921.2
2018-01-05T00:10:10.444Z,921.3
2018-01-05T00:11:18.769Z,921.1
2018-01-05T00:12:27.103Z,921.3
2018-01-05T00:13:30.446Z,921.1
2018-01-05T00:14:38.627Z,921.1
2018-01-05T00:15:46.247Z,921.2
2018-01-05T00:16:53.871Z,921.3
2018-01-05T00:17:57.951Z,921.3
2018-01-05T00:19:06.814Z,917.9
2018-01-05T00:20:13.623Z,921.4
2018-01-05T00:21:23.952Z,921.4
2018-01-05T00:22:33.105Z,921.4
2018-01-05T00:23:41.560Z,921.3
2018-01-05T00:24:51.142Z,921.3
2018-01-05T00:25:57.812Z,921.1
2018-01-05T00:27:06.424Z,921.4
2018-01-05T00:28:11.440Z,921.5
2018-01-05T00:29:16.956Z,921.5
2018-01-05T00:30:24.743Z,921.7
2018-01-05T00:31:33.054Z,921.7
2018-01-05T00:32:49.146Z,921.6
2018-01-05T00:33:56.062Z,921.7
2018-01-05T00:35:05.920Z,921.8
2018-01-05T00:36:13.659Z,921.9
2018-01-05T00:37:22.945Z,921.8
2018-01-05T00:38:29.557Z,921.9
2018-01-05T00:39:35.785Z,918.5
2018-01-05T00:40:43.235Z,921.9
2018-01-05T00:41:53.630Z,921.8
2018-01-05T00:43:00.400Z,921.9
2018-01-05T00:44:15.806Z,921.9
2018-01-05T00:45:22.679Z,922
2018-01-05T00:46:31.787Z,922.1
2018-01-05T00:47:38.772Z,922.1
2018-01-05T00:48:48.049Z,922.1
2018-01-05T00:49:53.382Z,922.2
2018-01-05T00:51:01.686Z,922.2
2018-01-05T00:52:08.695Z,922.2
2018-01-05T00:53:15.297Z,922.2
2018-01-05T00:54:21.898Z,922.3
2018-01-05T00:55:30.251Z,922.3
2018-01-05T00:56:37.944Z,922.3
2018-01-05T00:57:50.163Z,922.4
2018-01-05T00:58:57.552Z,922.2
2018-01-05T01:00:08.678Z,922.3
2018-01-05T01:01:16.099Z,922.4
2018-01-05T01:02:24.800Z,922.5
2018-01-05T01:03:32.999Z,922.5
2018-01-05T01:04:39.890Z,922.4
2018-01-05T01:05:47.208Z,922.4
2018-01-05T01:07:01.663Z,922.5
2018-01-05T01:08:10.203Z,922.5
2018-01-05T01:09:18.745Z,922.5
2018-01-05T01:10:25.268Z,922.5
2018-01-05T01:11:35.385Z,922.5
2018-01-05T01:12:42.904Z,919.2
2018-01-05T01:13:52.193Z,922.7
2018-01-05T01:14:57.450Z,922.7
2018-01-05T01:16:00.894Z,922.8
2018-01-05T01:17:04.865Z,922.8
2018-01-05T01:18:12.357Z,922.7
2018-01-05T01:19:15.628Z,922.9
2018-01-05T01:20:19.795Z,922.8
2018-01-05T01:21:23.301Z,922.9
2018-01-05T01:22:26.686Z,922.8
2018-01-05T01:23:30.167Z,922.9
2018-01-05T01:24:33.552Z,922.9
2018-01-05T01:25:36.978Z,922.8
2018-01-05T01:26:40.443Z,923
2018-01-05T01:27:43.847Z,923
2018-01-05T01:28:50.910Z,923
2018-01-05T01:29:54.387Z,923
2018-01-05T01:30:58.012Z,923
2018-01-05T01:32:01.705Z,923
2018-01-05T01:33:05.179Z,923.1
2018-01-05T01:34:08.638Z,923.1
2018-01-05T01:35:13.651Z,923.1
2018-01-05T01:36:17.189Z,923.2
2018-01-05T01:37:21.388Z,923.1
2018-01-05T01:38:24.813Z,923.2
2018-01-05T01:39:32.556Z,923.1
2018-01-05T01:40:36.625Z,923.2
2018-01-05T01:41:41.413Z,923.2
2018-01-05T01:42:46.586Z,923.1
2018-01-05T01:43:50.613Z,923.2
2018-01-05T01:44:55.469Z,923.3
2018-01-05T01:45:59.424Z,923.3
2018-01-05T01:47:06.033Z,923.2
2018-01-05T01:48:11.662Z,923.3
2018-01-05T01:49:16.508Z,923.3
2018-01-05T01:50:24.497Z,923.4
2018-01-05T01:51:29.715Z,923.3
2018-01-05T01:52:36.022Z,923.3
2018-01-05T01:53:39.673Z,923.3
2018-01-05T01:54:43.679Z,923.3
2018-01-05T01:55:49.896Z,923.4
2018-01-05T01:56:58.351Z,923.3
2018-01-05T01:58:05.888Z,923.3
2018-01-05T01:59:11.925Z,923.3
2018-01-05T02:00:16.693Z,923.5
2018-01-05T02:01:28.393Z,923.5
2018-01-05T02:02:34.419Z,923.4
2018-01-05T02:03:39.204Z,923.4
2018-01-05T02:04:47.487Z,923.4
2018-01-05T02:05:54.034Z,923.5
2018-01-05T02:06:58.766Z,923.5
2018-01-05T02:08:04.219Z,923.5
2018-01-05T02:09:10.495Z,923.6
2018-01-05T02:10:17.521Z,923.5
2018-01-05T02:11:24.597Z,923.6
2018-01-05T02:12:39.984Z,923.7
2018-01-05T02:13:49.207Z,923.7
2018-01-05T02:14:57.665Z,923.7
2018-01-05T02:16:02.796Z,923.5
2018-01-05T02:17:12.424Z,923.6
2018-01-05T02:18:18.941Z,923.7
2018-01-05T02:19:26.291Z,923.7
2018-01-05T02:20:32.527Z,923.6
2018-01-05T02:21:42.944Z,923.4
2018-01-05T02:22:50.547Z,923.7
2018-01-05T02:24:06.086Z,923.7
2018-01-05T02:25:12.187Z,923.7
2018-01-05T02:26:20.456Z,923.7
2018-01-05T02:27:30.340Z,923.7
2018-01-05T02:28:37.260Z,923.6
2018-01-05T02:29:46.179Z,923.7
2018-01-05T02:30:53.529Z,923.7
2018-01-05T02:32:01.746Z,923.7
2018-01-05T02:33:10.997Z,923.7
2018-01-05T02:34:20.178Z,923.6
2018-01-05T02:35:34.574Z,923.7
2018-01-05T02:36:42.533Z,923.7
2018-01-05T02:37:49.513Z,923.7
2018-01-05T02:38:55.304Z,923.7
2018-01-05T02:40:12.849Z,923.9
2018-01-05T02:41:21.249Z,923.8
2018-01-05T02:42:30.754Z,923.8
2018-01-05T02:43:37.404Z,923.9
2018-01-05T02:44:43.541Z,923.9
2018-01-05T02:45:49.993Z,923.9
2018-01-05T02:46:58.091Z,923.8
2018-01-05T02:48:09.731Z,923.9
2018-01-05T02:49:16.407Z,923.8
2018-01-05T02:50:25.276Z,924
2018-01-05T02:51:34.200Z,923.9
2018-01-05T02:52:42.104Z,923.8
2018-01-05T02:53:50.343Z,923.9
2018-01-05T02:54:57.176Z,923.9
2018-01-05T02:56:03.732Z,920.3
2018-01-05T02:57:08.461Z,923.9
2018-01-05T02:58:17.912Z,923.8
2018-01-05T02:59:24.185Z,923.7
2018-01-05T03:00:30.556Z,923.9
2018-01-05T03:01:39.802Z,923.9
2018-01-05T03:02:48.075Z,923.7
2018-01-05T03:03:58.722Z,923.8
2018-01-05T03:05:06.691Z,923.9
2018-01-05T03:06:13.957Z,923.9
2018-01-05T03:07:22.462Z,924
2018-01-05T03:08:27.137Z,924.1
2018-01-05T03:09:40.326Z,924
2018-01-05T03:10:44.193Z,924.1
2018-01-05T03:11:49.177Z,924.1
2018-01-05T03:12:54.107Z,924.1
2018-01-05T03:14:03.796Z,924.1
2018-01-05T03:15:09.597Z,924
2018-01-05T03:16:17.787Z,923.9
2018-01-05T03:17:26.471Z,924
2018-01-05T03:18:33.786Z,924.2
2018-01-05T03:19:42.267Z,924.1
2018-01-05T03:20:57.570Z,924.1
2018-01-05T03:22:04.803Z,924.2
2018-01-05T03:23:11.155Z,920.6
2018-01-05T03:24:18.925Z,924.2
2018-01-05T03:25:26.695Z,924.2
2018-01-05T03:26:33.703Z,924.2
2018-01-05T03:27:44.510Z,924.2
2018-01-05T03:28:51.626Z,924.3
2018-01-05T03:29:58.944Z,924.3
2018-01-05T03:31:04.746Z,924.2
2018-01-05T03:32:11.639Z,924.2
2018-01-05T03:33:15.204Z,924.2
2018-01-05T03:34:19.310Z,924.2
2018-01-05T03:35:22.717Z,924.3
2018-01-05T03:36:26.661Z,924.3
2018-01-05T03:37:30.142Z,924.3
2018-01-05T03:38:34.190Z,924.2
2018-01-05T03:39:37.612Z,924.2
2018-01-05T03:40:41.073Z,924.2
2018-01-05T03:41:44.792Z,924.2
2018-01-05T03:42:52.990Z,924.3
2018-01-05T03:43:57.016Z,924.3
2018-01-05T03:45:00.588Z,924.3
2018-01-05T03:46:05.660Z,924.3
2018-01-05T03:47:09.145Z,924.3
2018-01-05T03:48:13.283Z,924.3
2018-01-05T03:49:16.676Z,924.5
2018-01-05T03:50:20.707Z,924.3
2018-01-05T03:51:24.195Z,924.4
2018-01-05T03:52:27.662Z,924.3
2018-01-05T03:53:34.878Z,924.3
2018-01-05T03:54:38.305Z,924.3
2018-01-05T03:55:41.594Z,924.3
2018-01-05T03:56:45.624Z,924.3
2018-01-05T03:57:49.130Z,924.3
2018-01-05T03:58:52.464Z,924.3
2018-01-05T03:59:56.854Z,924.3
2018-01-05T04:01:00.539Z,924.3
2018-01-05T04:02:04.761Z,924.3
2018-01-05T04:03:09.839Z,924.3
2018-01-05T04:04:19.435Z,924.4
2018-01-05T04:05:22.950Z,924.4
2018-01-05T04:06:27.073Z,924.5
2018-01-05T04:07:31.920Z,924.4
2018-01-05T04:08:35.870Z,924.3
2018-01-05T04:09:39.370Z,924.3
2018-01-05T04:10:43.883Z,924.3
2018-01-05T04:11:48.646Z,924.3
2018-01-05T04:12:52.688Z,924.3
2018-01-05T04:13:57.378Z,924.2
2018-01-05T04:15:07.726Z,924.2
2018-01-05T04:16:14.766Z,924.3
2018-01-05T04:17:21.785Z,924.3
2018-01-05T04:18:29.481Z,924.3
2018-01-05T04:19:35.673Z,924.3
2018-01-05T04:20:42.035Z,924.4
2018-01-05T04:21:47.936Z,924.5
2018-01-05T04:22:52.641Z,924.4
2018-01-05T04:23:59.500Z,924.5
2018-01-05T04:25:03.809Z,924.4
2018-01-05T04:26:15.754Z,924.4
2018-01-05T04:27:23.231Z,924.5
2018-01-05T04:28:31.938Z,924.4
2018-01-05T04:29:38.700Z,924.4
2018-01-05T04:30:47.823Z,924.4
2018-01-05T04:31:54.824Z,924.5
2018-01-05T04:33:02.474Z,924.5
2018-01-05T04:34:10.366Z,924.5
2018-01-05T04:35:17.708Z,924.5
2018-01-05T04:36:24.929Z,924.4
2018-01-05T04:37:38.604Z,924.4
2018-01-05T04:38:43.132Z,924.3
2018-01-05T04:39:51.222Z,924.3
2018-01-05T04:40:58.737Z,924.4
2018-01-05T04:42:03.034Z,924.3
2018-01-05T04:43:11.964Z,924.4
2018-01-05T04:44:20.028Z,924.3
2018-01-05T04:45:25.103Z,924.3
2018-01-05T04:46:30.831Z,924.3
2018-01-05T04:47:40.244Z,924.2
2018-01-05T04:48:51.817Z,924.4
2018-01-05T04:49:58.762Z,924.3
2018-01-05T04:51:07.007Z,924.3
2018-01-05T04:52:14.024Z,924.3
2018-01-05T04:53:20.992Z,924.3
2018-01-05T04:54:30.373Z,924.2
2018-01-05T04:55:37.779Z,924.3
2018-01-05T04:56:45.976Z,924.3
2018-01-05T04:57:54.013Z,924.3
2018-01-05T04:59:02.323Z,924.3
2018-01-05T05:00:15.695Z,924.3
2018-01-05T05:01:23.762Z,924.3
2018-01-05T05:02:30.981Z,924.3
2018-01-05T05:03:36.863Z,924.3
2018-01-05T05:04:45.498Z,924.2
2018-01-05T05:05:54.298Z,924.3
2018-01-05T05:07:01.400Z,920.7
2018-01-05T05:08:07.960Z,924.4
2018-01-05T05:09:19.695Z,924.3
2018-01-05T05:10:28.617Z,924.3
2018-01-05T05:11:40.934Z,924.3
2018-01-05T05:12:47.796Z,924.3
2018-01-05T05:13:53.820Z,924.3
2018-01-05T05:15:05.636Z,924.3
2018-01-05T05:16:09.629Z,924.4
2018-01-05T05:17:15.011Z,924.4
2018-01-05T05:18:21.698Z,924.4
2018-01-05T05:19:28.436Z,924.3
2018-01-05T05:20:34.418Z,924.3
2018-01-05T05:21:40.604Z,924.3
2018-01-05T05:22:57.207Z,924.3
2018-01-05T05:24:05.857Z,924.2
2018-01-05T05:25:11.627Z,924.3
2018-01-05T05:26:18.955Z,924.3
2018-01-05T05:27:26.130Z,924.2
2018-01-05T05:28:33.981Z,924.2
2018-01-05T05:29:42.568Z,924.2
2018-01-05T05:30:48.960Z,924.2
2018-01-05T05:31:59.703Z,924.2
2018-01-05T05:33:06.315Z,924.2
2018-01-05T05:34:19.519Z,924.2
2018-01-05T05:35:25.420Z,924.3
2018-01-05T05:36:34.381Z,924.2
2018-01-05T05:37:42.840Z,924.3
2018-01-05T05:38:52.693Z,924.3
2018-01-05T05:40:01.650Z,924.2
2018-01-05T05:41:08.932Z,924.3
2018-01-05T05:42:16.695Z,924.2
2018-01-05T05:43:32.254Z,924.2
2018-01-05T05:44:38.349Z,924.3
2018-01-05T05:45:56.029Z,924.3
2018-01-05T05:47:04.455Z,924.3
2018-01-05T05:48:09.410Z,924.2
2018-01-05T05:49:14.349Z,924.2
2018-01-05T05:50:18.577Z,924.3
2018-01-05T05:51:22.014Z,924.2
2018-01-05T05:52:26.074Z,924.2
2018-01-05T05:53:31.005Z,924.1
2018-01-05T05:54:35.321Z,924.2
2018-01-05T05:55:40.816Z,924.2
2018-01-05T05:56:47.691Z,924.2
2018-01-05T05:57:50.880Z,924.1
2018-01-05T05:58:54.241Z,924.2
2018-01-05T05:59:57.774Z,924.2
2018-01-05T06:01:01.964Z,924.2
2018-01-05T06:02:05.494Z,924.2
2018-01-05T06:03:08.904Z,924.2
2018-01-05T06:04:12.292Z,924.2
2018-01-05T06:05:15.891Z,924.2
2018-01-05T06:06:19.164Z,924.1
2018-01-05T06:07:27.355Z,924.2
2018-01-05T06:08:30.902Z,924.1
2018-01-05T06:09:34.442Z,924.2
2018-01-05T06:10:37.780Z,924.3
2018-01-05T06:11:41.141Z,924.2
2018-01-05T06:12:44.917Z,924.1
2018-01-05T06:13:50.229Z,924.2
2018-01-05T06:14:54.239Z,924.2
2018-01-05T06:15:57.819Z,924.3
2018-01-05T06:17:01.303Z,924.2
2018-01-05T06:18:11.353Z,924.2
2018-01-05T06:19:15.523Z,924.2
2018-01-05T06:20:29.652Z,924.1
2018-01-05T06:21:34.557Z,924.1
2018-01-05T06:22:37.979Z,924.1
2018-01-05T06:23:42.675Z,924.1
2018-01-05T06:24:49.142Z,924.1
2018-01-05T06:25:53.535Z,924
2018-01-05T06:26:57.017Z,924
2018-01-05T06:28:00.493Z,924.1
2018-01-05T06:29:11.880Z,924.1
2018-01-05T06:30:16.568Z,924.1
2018-01-05T06:31:21.182Z,924.1
2018-01-05T06:32:25.948Z,924.1
2018-01-05T06:33:29.985Z,924.1
2018-01-05T06:34:35.670Z,924.1
2018-01-05T06:35:41.545Z,924.1
2018-01-05T06:36:48.261Z,924
2018-01-05T06:37:55.062Z,924
2018-01-05T06:39:01.998Z,924
2018-01-05T06:40:15.133Z,924.1
2018-01-05T06:41:21.460Z,924
2018-01-05T06:42:26.383Z,924.1
2018-01-05T06:43:33.693Z,924
2018-01-05T06:44:42.916Z,924.1
2018-01-05T06:45:48.909Z,924
2018-01-05T06:46:55.951Z,924
2018-01-05T06:48:02.800Z,924
2018-01-05T06:49:09.072Z,924
2018-01-05T06:50:14.811Z,924.1
2018-01-05T06:51:31.460Z,924
2018-01-05T06:52:36.176Z,924
2018-01-05T06:53:44.229Z,924.1
2018-01-05T06:54:52.054Z,924.1
2018-01-05T06:55:59.630Z,924
2018-01-05T06:57:05.005Z,924
2018-01-05T06:58:15.069Z,924
2018-01-05T06:59:22.414Z,924.1
2018-01-05T07:00:31.445Z,924.1
2018-01-05T07:01:38.099Z,924.1
2018-01-05T07:02:55.960Z,924.1
2018-01-05T07:04:04.895Z,924.1
2018-01-05T07:05:10.853Z,924.2
2018-01-05T07:06:19.920Z,924.2
2018-01-05T07:07:28.912Z,924.3
2018-01-05T07:08:39.422Z,924.3
2018-01-05T07:09:46.455Z,924.3
2018-01-05T07:10:52.101Z,924.3
2018-01-05T07:12:01.214Z,924.2
2018-01-05T07:13:08.274Z,924.2
2018-01-05T07:14:19.661Z,924.2
2018-01-05T07:15:25.390Z,924.2
2018-01-05T07:16:31.184Z,924.3
2018-01-05T07:17:38.785Z,924.3
2018-01-05T07:18:46.633Z,924.3
2018-01-05T07:19:53.556Z,924.3
2018-01-05T07:21:04.285Z,924.2
2018-01-05T07:22:10.082Z,924.3
2018-01-05T07:23:16.859Z,924.2
2018-01-05T07:24:24.182Z,924.2
2018-01-05T07:25:37.496Z,924.1
2018-01-05T07:26:43.708Z,924.1
2018-01-05T07:27:52.005Z,924.1
2018-01-05T07:28:58.323Z,924.1
2018-01-05T07:30:06.526Z,924.1
2018-01-05T07:31:12.471Z,924
2018-01-05T07:32:18.846Z,924
2018-01-05T07:33:28.768Z,924
2018-01-05T07:34:35.337Z,924
2018-01-05T07:35:43.441Z,924
2018-01-05T07:36:54.408Z,924
2018-01-05T07:37:57.783Z,923.9
2018-01-05T07:39:01.271Z,924
2018-01-05T07:40:09.138Z,924
2018-01-05T07:41:13.408Z,924
2018-01-05T07:42:16.786Z,924
2018-01-05T07:43:21.820Z,924
2018-01-05T07:44:26.289Z,924.1
2018-01-05T07:45:31.587Z,924.1
2018-01-05T07:46:35.592Z,924
2018-01-05T07:47:43.427Z,924
2018-01-05T07:48:47.458Z,924
2018-01-05T07:49:50.663Z,923.9
2018-01-05T07:50:53.756Z,923.7
2018-01-05T07:51:57.088Z,923.8
2018-01-05T07:53:00.367Z,920.1
2018-01-05T07:54:09.901Z,923.9
2018-01-05T07:55:13.855Z,923.9
2018-01-05T07:56:20.363Z,923.8
2018-01-05T07:57:25.805Z,923.8
2018-01-05T07:58:33.175Z,923.8
2018-01-05T07:59:37.230Z,923.7
2018-01-05T08:00:40.680Z,923.8
2018-01-05T08:01:45.046Z,923.8
2018-01-05T08:02:49.811Z,923.8
2018-01-05T08:03:53.067Z,923.8
2018-01-05T08:04:58.859Z,923.7
2018-01-05T08:06:03.795Z,923.7
2018-01-05T08:07:08.893Z,923.7
2018-01-05T08:08:14.137Z,923.8
2018-01-05T08:09:21.294Z,923.8
2018-01-05T08:10:27.170Z,923.9
2018-01-05T08:11:31.212Z,923.9
2018-01-05T08:12:34.464Z,923.8
2018-01-05T08:13:37.997Z,923.8
2018-01-05T08:14:42.398Z,923.7
2018-01-05T08:15:45.749Z,923.7
2018-01-05T08:16:49.162Z,923.7
2018-01-05T08:17:53.304Z,923.8
2018-01-05T08:18:56.283Z,923.7
2018-01-05T08:20:03.180Z,923.6
2018-01-05T08:21:08.110Z,923.6
2018-01-05T08:22:11.786Z,923.6
2018-01-05T08:23:16.399Z,923.6
2018-01-05T08:24:20.424Z,923.7
2018-01-05T08:25:24.465Z,923.7
2018-01-05T08:26:27.959Z,923.7
2018-01-05T08:27:32.078Z,923.7
2018-01-05T08:28:35.801Z,923.7
2018-01-05T08:29:41.408Z,923.7
2018-01-05T08:30:48.457Z,923.6
2018-01-05T08:31:55.970Z,923.7
2018-01-05T08:32:59.364Z,923.7
2018-01-05T08:34:03.517Z,923.8
2018-01-05T08:35:09.039Z,923.8
2018-01-05T08:36:13.892Z,923.7
2018-01-05T08:37:18.653Z,923.5
2018-01-05T08:38:22.734Z,923.8
2018-01-05T08:39:27.726Z,923.7
2018-01-05T08:40:32.982Z,923.9
2018-01-05T08:41:40.754Z,923.8
2018-01-05T08:42:48.416Z,923.9
2018-01-05T08:43:52.437Z,923.8
2018-01-05T08:44:59.621Z,923.7
2018-01-05T08:46:04.022Z,923.9
2018-01-05T08:47:08.316Z,923.8
2018-01-05T08:48:13.562Z,923.8
2018-01-05T08:49:17.006Z,923.9
2018-01-05T08:50:21.610Z,923.7
2018-01-05T08:51:27.187Z,923.7
2018-01-05T08:52:35.442Z,923.7
2018-01-05T08:53:38.864Z,920
2018-01-05T08:54:42.672Z,923.7
2018-01-05T08:55:46.074Z,923.7
2018-01-05T08:56:50.116Z,923.8
2018-01-05T08:57:54.539Z,923.9
2018-01-05T08:58:58.539Z,923.8
2018-01-05T09:00:02.588Z,923.7
2018-01-05T09:01:06.731Z,923.7
2018-01-05T09:02:10.375Z,923.8
2018-01-05T09:03:20.277Z,923.7
2018-01-05T09:04:23.803Z,923.8
2018-01-05T09:05:27.183Z,923.8
2018-01-05T09:06:31.715Z,923.8
2018-01-05T09:07:38.923Z,923.7
2018-01-05T09:08:42.210Z,923.7
2018-01-05T09:09:45.580Z,923.6
2018-01-05T09:10:49.565Z,923.6
2018-01-05T09:11:55.833Z,923.6
2018-01-05T09:13:01.800Z,923.6
2018-01-05T09:14:09.725Z,923.6
2018-01-05T09:15:13.666Z,923.6
2018-01-05T09:16:16.938Z,923.5
2018-01-05T09:17:22.321Z,923.6
2018-01-05T09:18:26.474Z,923.6
2018-01-05T09:19:30.997Z,923.5
2018-01-05T09:20:45.338Z,923.5
2018-01-05T09:21:50.450Z,923.5
2018-01-05T09:22:53.308Z,923.5
2018-01-05T09:24:00.927Z,923.6
2018-01-05T09:25:09.514Z,923.5
2018-01-05T09:26:15.362Z,923.5
2018-01-05T09:27:19.432Z,923.5
2018-01-05T09:28:25.192Z,923.5
2018-01-05T09:29:32.051Z,923.6
2018-01-05T09:30:40.288Z,923.6
2018-01-05T09:31:44.882Z,923.6
2018-01-05T09:32:49.159Z,923.7
2018-01-05T09:33:52.717Z,923.7
2018-01-05T09:34:56.757Z,923.8
2018-01-05T09:36:03.554Z,923.8
2018-01-05T09:37:09.958Z,923.7
2018-01-05T09:38:14.563Z,923.7
2018-01-05T09:39:18.663Z,923.7
2018-01-05T09:40:24.396Z,923.8
2018-01-05T09:41:28.827Z,923.8
2018-01-05T09:42:32.594Z,923.7
2018-01-05T09:43:39.475Z,923.8
2018-01-05T09:44:43.809Z,923.7
2018-01-05T09:45:47.960Z,923.9
2018-01-05T09:47:00.381Z,923.8
2018-01-05T09:48:05.372Z,923.8
2018-01-05T09:49:10.871Z,923.9
2018-01-05T09:50:14.649Z,923.9
2018-01-05T09:51:21.242Z,923.8
2018-01-05T09:52:25.580Z,920.5
2018-01-05T09:53:28.864Z,924
2018-01-05T09:54:33.543Z,924
2018-01-05T09:55:41.110Z,924
2018-01-05T09:56:44.952Z,920.6
2018-01-05T09:57:52.785Z,920.7
2018-01-05T09:58:58.509Z,923.9
2018-01-05T10:00:03.199Z,923.8
2018-01-05T10:01:07.344Z,923.9
2018-01-05T10:02:10.816Z,923.9
2018-01-05T10:03:14.343Z,923.9
2018-01-05T10:04:22.397Z,923.8
2018-01-05T10:05:28.004Z,923.9
2018-01-05T10:06:35.575Z,923.9
2018-01-05T10:07:44.236Z,923.9
2018-01-05T10:08:54.264Z,923.9
2018-01-05T10:09:59.717Z,923.9
2018-01-05T10:11:04.060Z,923.9
2018-01-05T10:12:10.478Z,923.9
2018-01-05T10:13:16.721Z,923.9
2018-01-05T10:14:20.732Z,923.9
2018-01-05T10:15:25.849Z,923.9
2018-01-05T10:16:31.602Z,923.9
2018-01-05T10:17:38.114Z,923.9
2018-01-05T10:18:42.170Z,923.8
2018-01-05T10:19:53.882Z,923.8
2018-01-05T10:21:00.433Z,923.7
2018-01-05T10:22:06.161Z,923.7
2018-01-05T10:23:12.806Z,923.7
2018-01-05T10:24:21.761Z,923.7
2018-01-05T10:25:25.209Z,920.3
2018-01-05T10:26:28.627Z,923.7
2018-01-05T10:27:32.104Z,923.7
2018-01-05T10:28:35.583Z,923.7
2018-01-05T10:29:38.974Z,923.7
2018-01-05T10:30:45.850Z,923.7
2018-01-05T10:31:49.302Z,923.7
2018-01-05T10:32:52.866Z,923.7
2018-01-05T10:33:56.340Z,923.7
2018-01-05T10:34:59.672Z,923.7
2018-01-05T10:36:03.767Z,923.7
2018-01-05T10:37:07.163Z,923.7
2018-01-05T10:38:10.649Z,923.7
2018-01-05T10:39:14.251Z,923.6
2018-01-05T10:40:17.938Z,923.6
2018-01-05T10:41:26.472Z,923.6
2018-01-05T10:42:30.635Z,923.5
2018-01-05T10:43:34.067Z,923.5
2018-01-05T10:44:38.467Z,923.5
2018-01-05T10:45:42.791Z,923.5
2018-01-05T10:46:46.726Z,923.5
2018-01-05T10:47:50.354Z,923.5
2018-01-05T10:48:55.169Z,923.6
2018-01-05T10:49:59.271Z,923.6
2018-01-05T10:51:03.333Z,923.6
2018-01-05T10:52:13.095Z,923.5
2018-01-05T10:53:15.979Z,923.5
2018-01-05T10:54:22.115Z,923.5
2018-01-05T10:55:25.695Z,923.5
2018-01-05T10:56:31.014Z,923.5
2018-01-05T10:57:35.198Z,923.5
2018-01-05T10:58:39.329Z,923.5
2018-01-05T10:59:45.401Z,923.5
2018-01-05T11:00:51.595Z,923.4
2018-01-05T11:01:58.861Z,923.4
2018-01-05T11:03:09.290Z,923.4
2018-01-05T11:04:14.802Z,919.8
2018-01-05T11:05:19.532Z,923.3
2018-01-05T11:06:27.697Z,923.3
2018-01-05T11:07:34.522Z,923.3
2018-01-05T11:08:40.663Z,923.3
2018-01-05T11:09:45.271Z,923.4
2018-01-05T11:10:51.243Z,923.3
2018-01-05T11:11:57.883Z,923.3
2018-01-05T11:13:04.983Z,923.3
2018-01-05T11:14:15.818Z,923.2
2018-01-05T11:15:21.934Z,923.2
2018-01-05T11:16:25.146Z,923.3
2018-01-05T11:17:30.816Z,923.3
2018-01-05T11:18:36.411Z,923.3
2018-01-05T11:19:42.570Z,923.2
2018-01-05T11:20:47.964Z,923.2
2018-01-05T11:21:51.376Z,923.2
2018-01-05T11:22:59.280Z,923.2
2018-01-05T11:24:04.542Z,923.2
2018-01-05T11:25:16.959Z,923.3
2018-01-05T11:26:24.170Z,923.2
2018-01-05T11:27:32.093Z,923.2
2018-01-05T11:28:38.172Z,923.2
2018-01-05T11:29:45.206Z,919.9
2018-01-05T11:30:51.373Z,923.1
2018-01-05T11:31:57.217Z,923.1
2018-01-05T11:33:03.018Z,923
2018-01-05T11:34:08.801Z,923.1
2018-01-05T11:35:13.480Z,923
2018-01-05T11:36:23.996Z,923
2018-01-05T11:37:30.283Z,923
2018-01-05T11:38:38.228Z,923.1
2018-01-05T11:39:43.918Z,923.1
2018-01-05T11:40:50.969Z,923.1
2018-01-05T11:41:58.461Z,923.1
2018-01-05T11:43:04.404Z,923.1
2018-01-05T11:44:13.753Z,923.1
2018-01-05T11:45:21.202Z,923.1
2018-01-05T11:46:29.195Z,923.1
2018-01-05T11:47:45.152Z,923.1
2018-01-05T11:48:51.190Z,923.1
2018-01-05T11:49:57.990Z,923.1
2018-01-05T11:51:06.695Z,923.1
2018-01-05T11:52:13.241Z,923.2
2018-01-05T11:53:23.516Z,923.1
2018-01-05T11:54:31.404Z,923.2
2018-01-05T11:55:37.836Z,923.2
2018-01-05T11:56:44.675Z,923.1
2018-01-05T11:57:50.606Z,923.1
2018-01-05T11:59:10.237Z,923
2018-01-05T12:00:18.055Z,923
2018-01-05T12:01:25.637Z,923
2018-01-05T12:02:33.735Z,923
2018-01-05T12:03:39.696Z,923
2018-01-05T12:04:45.816Z,923
2018-01-05T12:05:53.078Z,923
2018-01-05T12:06:59.440Z,923.1
2018-01-05T12:08:07.763Z,923.1
2018-01-05T12:09:14.063Z,923.1
2018-01-05T12:10:28.022Z,923.1
2018-01-05T12:11:35.297Z,923.1
2018-01-05T12:12:45.531Z,923.1
2018-01-05T12:13:49.642Z,923.1
2018-01-05T12:14:55.238Z,923
2018-01-05T12:16:00.697Z,923
2018-01-05T12:17:04.437Z,923
2018-01-05T12:18:10.349Z,923
2018-01-05T12:19:13.935Z,922.9
2018-01-05T12:20:19.219Z,922.9
2018-01-05T12:21:31.152Z,922.9
2018-01-05T12:22:36.735Z,922.9
2018-01-05T12:23:45.174Z,921.8
2018-01-05T12:24:52.885Z,922.8
2018-01-05T12:25:57.414Z,922.9
2018-01-05T12:27:05.705Z,922.2
2018-01-05T12:28:12.972Z,922.7
2018-01-05T12:29:20.634Z,922.6
2018-01-05T12:30:27.059Z,922.5
2018-01-05T12:31:30.402Z,922.5
2018-01-05T12:32:37.672Z,919
2018-01-05T12:33:43.220Z,922.5
2018-01-05T12:34:48.293Z,922.5
2018-01-05T12:35:59.196Z,922.4
2018-01-05T12:37:06.280Z,922.4
2018-01-05T12:38:09.641Z,922.5
2018-01-05T12:39:17.690Z,922.5
2018-01-05T12:40:21.224Z,922.6
2018-01-05T12:41:26.082Z,922.4
2018-01-05T12:42:30.865Z,922.4
2018-01-05T12:43:38.685Z,919
2018-01-05T12:44:42.622Z,922.4
2018-01-05T12:45:48.989Z,922.5
2018-01-05T12:46:54.119Z,922.6
2018-01-05T12:48:00.036Z,922.5
2018-01-05T12:49:06.465Z,922.5
2018-01-05T12:50:10.739Z,919.1
2018-01-05T12:51:16.468Z,922.6
2018-01-05T12:52:19.762Z,922.5
2018-01-05T12:53:23.664Z,922.6
2018-01-05T12:54:32.227Z,919.1
2018-01-05T12:55:38.935Z,922.5
2018-01-05T12:56:43.131Z,922.6
2018-01-05T12:57:49.624Z,922.5
2018-01-05T12:58:55.307Z,922.6
2018-01-05T13:00:01.236Z,922.3
2018-01-05T13:01:06.797Z,922.6
2018-01-05T13:02:15.092Z,922.5
2018-01-05T13:03:20.863Z,922.5
2018-01-05T13:04:26.907Z,919.2
2018-01-05T13:05:34.455Z,922.6
2018-01-05T13:06:41.371Z,922.7
2018-01-05T13:07:46.581Z,922.7
2018-01-05T13:08:51.340Z,922.7
2018-01-05T13:09:57.864Z,922.7
2018-01-05T13:11:02.590Z,922.6
2018-01-05T13:12:09.263Z,922.7
2018-01-05T13:13:12.604Z,922.7
2018-01-05T13:14:17.122Z,922.6
2018-01-05T13:15:23.647Z,922.6
2018-01-05T13:16:30.421Z,922.7
2018-01-05T13:17:34.425Z,922.6
2018-01-05T13:18:37.862Z,922.6
2018-01-05T13:19:41.845Z,922.7
2018-01-05T13:20:45.391Z,922.8
2018-01-05T13:21:49.001Z,922.8
2018-01-05T13:22:54.518Z,922.8
2018-01-05T13:23:58.866Z,922.9
2018-01-05T13:25:03.816Z,923
2018-01-05T13:26:08.339Z,923
2018-01-05T13:27:18.069Z,923
2018-01-05T13:28:23.920Z,922.9
2018-01-05T13:29:28.094Z,922.8
2018-01-05T13:30:32.649Z,922.9
2018-01-05T13:31:36.754Z,922.9
2018-01-05T13:32:41.844Z,923
2018-01-05T13:33:45.622Z,922.9
2018-01-05T13:34:49.379Z,923
2018-01-05T13:35:53.675Z,923
2018-01-05T13:36:57.174Z,923.1
2018-01-05T13:38:07.318Z,923
2018-01-05T13:39:13.914Z,923
2018-01-05T13:40:20.720Z,923
2018-01-05T13:41:27.257Z,923.1
2018-01-05T13:42:31.280Z,922.9
2018-01-05T13:43:35.357Z,922.9
2018-01-05T13:44:40.830Z,923
2018-01-05T13:45:44.223Z,923
2018-01-05T13:46:50.724Z,922.9
2018-01-05T13:47:55.396Z,923.1
2018-01-05T13:49:04.579Z,923
2018-01-05T13:50:11.649Z,923
2018-01-05T13:51:17.912Z,923
2018-01-05T13:52:22.357Z,923
2018-01-05T13:53:30.679Z,923.1
2018-01-05T13:54:33.841Z,923.1
2018-01-05T13:55:37.823Z,923.1
2018-01-05T13:56:43.753Z,923.1
2018-01-05T13:57:48.412Z,923.1
2018-01-05T13:58:54.124Z,923.2
2018-01-05T14:00:03.382Z,923.1
2018-01-05T14:01:08.898Z,923
2018-01-05T14:02:12.864Z,923
2018-01-05T14:03:18.442Z,923
2018-01-05T14:04:21.866Z,923
2018-01-05T14:05:26.166Z,923.1
2018-01-05T14:06:30.164Z,923.1
2018-01-05T14:07:34.407Z,923.2
2018-01-05T14:08:38.473Z,923.2
2018-01-05T14:09:41.897Z,923.2
2018-01-05T14:10:48.621Z,923.2
2018-01-05T14:11:53.388Z,922.9
2018-01-05T14:12:56.831Z,923.2
2018-01-05T14:14:00.703Z,923.2
2018-01-05T14:15:03.962Z,923.2
2018-01-05T14:16:08.640Z,923.1
2018-01-05T14:17:11.921Z,923.2
2018-01-05T14:18:15.381Z,923.2
2018-01-05T14:19:19.588Z,923.2
2018-01-05T14:20:23.040Z,923.2